sensor_id;sensor_type;location;lat;lon;timestamp;pressure;altitude;pressure_sealevel;temperature;humidity
4981;BME280;2507;50.392;7.482;2023-02-14T00:00:30;102794.88;;;3.49;79.18
4981;BME280;2507;50.392;7.482;2023-02-14T00:02:56;102798.34;;;3.50;78.38
4981;BME280;2507;50.392;7.482;2023-02-14T00:05:21;102797.53;;;3.40;78.83
4981;BME280;2507;50.392;7.482;2023-02-14T00:07:46;102800.19;;;3.34;78.38
4981;BME280;2507;50.392;7.482;2023-02-14T00:10:12;102798.50;;;3.29;78.24
4981;BME280;2507;50.392;7.482;2023-02-14T00:12:37;102798.53;;;3.17;77.98
4981;BME280;2507;50.392;7.482;2023-02-14T00:15:03;102805.50;;;3.11;79.00
4981;BME280;2507;50.392;7.482;2023-02-14T00:17:53;102796.84;;;3.13;79.01
4981;BME280;2507;50.392;7.482;2023-02-14T00:20:20;102815.88;;;3.08;78.35
4981;BME280;2507;50.392;7.482;2023-02-14T00:22:46;102791.66;;;3.09;78.62
4981;BME280;2507;50.392;7.482;2023-02-14T00:25:12;102792.50;;;3.13;78.24
4981;BME280;2507;50.392;7.482;2023-02-14T00:27:37;102783.91;;;3.08;78.57
4981;BME280;2507;50.392;7.482;2023-02-14T00:30:03;102781.31;;;3.06;78.14
4981;BME280;2507;50.392;7.482;2023-02-14T00:32:29;102791.69;;;3.06;78.86
4981;BME280;2507;50.392;7.482;2023-02-14T00:34:55;102790.81;;;3.09;79.21
4981;BME280;2507;50.392;7.482;2023-02-14T00:37:20;102794.25;;;3.14;79.15
4981;BME280;2507;50.392;7.482;2023-02-14T00:39:46;102785.56;;;3.17;79.17
4981;BME280;2507;50.392;7.482;2023-02-14T00:42:11;102779.53;;;3.18;79.05
4981;BME280;2507;50.392;7.482;2023-02-14T00:44:40;102786.44;;;3.17;78.78
4981;BME280;2507;50.392;7.482;2023-02-14T00:47:05;102787.34;;;3.11;78.91
4981;BME280;2507;50.392;7.482;2023-02-14T00:49:31;102782.19;;;3.08;78.97
4981;BME280;2507;50.392;7.482;2023-02-14T00:51:56;102786.53;;;3.03;78.73
4981;BME280;2507;50.392;7.482;2023-02-14T00:54:21;102781.34;;;3.00;79.13
4981;BME280;2507;50.392;7.482;2023-02-14T00:56:47;102790.84;;;3.04;78.91
4981;BME280;2507;50.392;7.482;2023-02-14T00:59:12;102781.31;;;3.08;79.56
4981;BME280;2507;50.392;7.482;2023-02-14T01:01:38;102802.91;;;3.05;79.50
4981;BME280;2507;50.392;7.482;2023-02-14T01:04:04;102781.34;;;3.03;79.72
4981;BME280;2507;50.392;7.482;2023-02-14T01:06:29;102794.25;;;3.14;79.83
4981;BME280;2507;50.392;7.482;2023-02-14T01:08:55;102781.28;;;3.13;79.66
4981;BME280;2507;50.392;7.482;2023-02-14T01:11:21;102785.59;;;3.13;79.25
4981;BME280;2507;50.392;7.482;2023-02-14T01:13:48;102782.94;;;3.23;79.20
4981;BME280;2507;50.392;7.482;2023-02-14T01:16:19;102789.06;;;3.13;78.30
4981;BME280;2507;50.392;7.482;2023-02-14T01:18:45;102790.00;;;2.93;78.20
4981;BME280;2507;50.392;7.482;2023-02-14T01:21:23;102796.97;;;2.85;79.30
4981;BME280;2507;50.392;7.482;2023-02-14T01:23:51;102803.00;;;2.89;79.13
4981;BME280;2507;50.392;7.482;2023-02-14T01:26:17;102796.97;;;2.85;78.24
4981;BME280;2507;50.392;7.482;2023-02-14T01:28:43;102809.09;;;2.77;78.63
4981;BME280;2507;50.392;7.482;2023-02-14T01:31:15;102799.59;;;2.72;78.54
4981;BME280;2507;50.392;7.482;2023-02-14T01:33:43;102791.00;;;2.67;79.03
4981;BME280;2507;50.392;7.482;2023-02-14T01:36:26;102792.72;;;2.60;79.28
4981;BME280;2507;50.392;7.482;2023-02-14T01:38:53;102813.47;;;2.54;80.14
4981;BME280;2507;50.392;7.482;2023-02-14T01:41:20;102797.06;;;2.49;79.51
4981;BME280;2507;50.392;7.482;2023-02-14T01:43:54;102790.19;;;2.33;79.31
4981;BME280;2507;50.392;7.482;2023-02-14T01:46:20;102797.97;;;2.26;78.80
4981;BME280;2507;50.392;7.482;2023-02-14T01:48:46;102826.47;;;2.21;79.65
4981;BME280;2507;50.392;7.482;2023-02-14T01:51:13;102788.50;;;2.31;79.35
4981;BME280;2507;50.392;7.482;2023-02-14T01:53:39;102790.22;;;2.36;79.06
4981;BME280;2507;50.392;7.482;2023-02-14T01:56:12;102791.03;;;2.37;79.44
4981;BME280;2507;50.392;7.482;2023-02-14T01:58:41;102789.31;;;2.39;79.03
4981;BME280;2507;50.392;7.482;2023-02-14T02:01:11;102790.16;;;2.48;78.84
4981;BME280;2507;50.392;7.482;2023-02-14T02:03:48;102772.91;;;2.37;78.28
4981;BME280;2507;50.392;7.482;2023-02-14T02:06:34;102780.69;;;2.35;78.27
4981;BME280;2507;50.392;7.482;2023-02-14T02:09:07;102778.97;;;2.22;79.03
4981;BME280;2507;50.392;7.482;2023-02-14T02:11:34;102780.69;;;2.35;78.85
4981;BME280;2507;50.392;7.482;2023-02-14T02:14:00;102778.13;;;2.25;78.96
4981;BME280;2507;50.392;7.482;2023-02-14T02:25:28;102766.94;;;1.91;79.99
4981;BME280;2507;50.392;7.482;2023-02-14T02:39:21;102768.66;;;1.95;80.66
4981;BME280;2507;50.392;7.482;2023-02-14T02:42:23;102766.09;;;1.89;80.34
4981;BME280;2507;50.392;7.482;2023-02-14T02:45:04;102767.81;;;1.78;80.21
4981;BME280;2507;50.392;7.482;2023-02-14T02:47:53;102771.25;;;1.74;80.95
4981;BME280;2507;50.392;7.482;2023-02-14T02:50:26;102763.50;;;1.63;81.10
4981;BME280;2507;50.392;7.482;2023-02-14T02:53:47;102763.50;;;1.57;81.96
4981;BME280;2507;50.392;7.482;2023-02-14T02:56:21;102766.06;;;1.50;83.05
4981;BME280;2507;50.392;7.482;2023-02-14T02:59:14;102765.22;;;1.61;83.62
4981;BME280;2507;50.392;7.482;2023-02-14T03:01:49;102763.50;;;1.72;82.79
4981;BME280;2507;50.392;7.482;2023-02-14T03:04:16;102766.06;;;1.77;82.64
4981;BME280;2507;50.392;7.482;2023-02-14T03:10:11;102803.19;;;1.86;81.74
4981;BME280;2507;50.392;7.482;2023-02-14T03:16:00;102778.16;;;1.90;81.18
4981;BME280;2507;50.392;7.482;2023-02-14T03:21:53;102767.81;;;1.91;80.33
4981;BME280;2507;50.392;7.482;2023-02-14T03:24:24;102773.00;;;1.96;79.83
4981;BME280;2507;50.392;7.482;2023-02-14T03:27:00;102766.94;;;1.86;79.56
4981;BME280;2507;50.392;7.482;2023-02-14T03:32:12;102782.44;;;1.62;79.69
4981;BME280;2507;50.392;7.482;2023-02-14T03:37:26;102772.09;;;1.55;79.99
4981;BME280;2507;50.392;7.482;2023-02-14T03:40:17;102791.06;;;1.54;79.92
4981;BME280;2507;50.392;7.482;2023-02-14T03:42:52;102777.28;;;1.52;80.19
4981;BME280;2507;50.392;7.482;2023-02-14T03:45:31;102772.94;;;1.34;80.21
4981;BME280;2507;50.392;7.482;2023-02-14T03:48:01;102783.28;;;1.36;80.19
4981;BME280;2507;50.392;7.482;2023-02-14T03:50:30;102774.66;;;1.35;79.72
4981;BME280;2507;50.392;7.482;2023-02-14T03:52:58;102772.06;;;1.28;80.33
4981;BME280;2507;50.392;7.482;2023-02-14T03:55:33;102778.94;;;1.24;80.06
4981;BME280;2507;50.392;7.482;2023-02-14T03:58:11;102777.22;;;1.28;80.42
4981;BME280;2507;50.392;7.482;2023-02-14T04:00:41;102778.97;;;1.41;79.87
4981;BME280;2507;50.392;7.482;2023-02-14T04:03:10;102782.41;;;1.34;79.66
4981;BME280;2507;50.392;7.482;2023-02-14T04:05:37;102822.94;;;1.38;79.72
4981;BME280;2507;50.392;7.482;2023-02-14T04:08:07;102786.72;;;1.44;80.14
4981;BME280;2507;50.392;7.482;2023-02-14T04:10:33;102784.13;;;1.33;80.30
4981;BME280;2507;50.392;7.482;2023-02-14T04:12:58;102787.59;;;1.34;80.96
4981;BME280;2507;50.392;7.482;2023-02-14T04:15:23;102779.84;;;1.46;81.32
4981;BME280;2507;50.392;7.482;2023-02-14T04:17:49;102788.50;;;1.51;80.08
4981;BME280;2507;50.392;7.482;2023-02-14T04:20:32;102797.09;;;1.50;80.26
4981;BME280;2507;50.392;7.482;2023-02-14T04:22:58;102769.50;;;1.41;80.10
4981;BME280;2507;50.392;7.482;2023-02-14T04:25:23;102775.53;;;1.40;80.68
4981;BME280;2507;50.392;7.482;2023-02-14T04:27:49;102772.06;;;1.38;81.42
4981;BME280;2507;50.392;7.482;2023-02-14T04:30:14;102772.09;;;1.52;80.91
4981;BME280;2507;50.392;7.482;2023-02-14T04:32:42;102773.00;;;1.60;81.38
4981;BME280;2507;50.392;7.482;2023-02-14T04:35:07;102784.19;;;1.56;81.34
4981;BME280;2507;50.392;7.482;2023-02-14T04:37:33;102775.53;;;1.45;80.58
4981;BME280;2507;50.392;7.482;2023-02-14T04:39:58;102781.53;;;1.35;80.49
4981;BME280;2507;50.392;7.482;2023-02-14T04:42:23;102778.13;;;1.34;80.48
4981;BME280;2507;50.392;7.482;2023-02-14T04:44:49;102775.47;;;1.22;80.19
4981;BME280;2507;50.392;7.482;2023-02-14T04:47:14;102785.81;;;1.19;80.08
4981;BME280;2507;50.392;7.482;2023-02-14T04:49:39;102774.63;;;1.26;79.76
4981;BME280;2507;50.392;7.482;2023-02-14T04:52:05;102772.91;;;1.16;79.33
4981;BME280;2507;50.392;7.482;2023-02-14T04:54:30;102762.53;;;1.12;79.07
4981;BME280;2507;50.392;7.482;2023-02-14T04:56:56;102769.44;;;1.05;79.90
4981;BME280;2507;50.392;7.482;2023-02-14T04:59:21;102758.16;;;0.88;80.14
4981;BME280;2507;50.392;7.482;2023-02-14T05:01:47;102753.88;;;0.96;79.74
4981;BME280;2507;50.392;7.482;2023-02-14T05:04:13;102777.09;;;0.84;79.23
4981;BME280;2507;50.392;7.482;2023-02-14T05:06:38;102753.81;;;0.79;79.89
4981;BME280;2507;50.392;7.482;2023-02-14T05:09:03;102754.69;;;0.83;80.29
4981;BME280;2507;50.392;7.482;2023-02-14T05:11:29;102761.63;;;0.87;80.29
4981;BME280;2507;50.392;7.482;2023-02-14T05:13:55;102762.47;;;0.90;80.39
4981;BME280;2507;50.392;7.482;2023-02-14T05:16:20;102759.94;;;0.99;80.38
4981;BME280;2507;50.392;7.482;2023-02-14T05:18:45;102762.56;;;1.21;79.76
4981;BME280;2507;50.392;7.482;2023-02-14T05:21:11;102755.66;;;1.17;79.02
4981;BME280;2507;50.392;7.482;2023-02-14T05:23:37;102762.53;;;1.09;79.51
4981;BME280;2507;50.392;7.482;2023-02-14T05:26:03;102762.53;;;1.09;78.90
4981;BME280;2507;50.392;7.482;2023-02-14T05:28:28;102769.41;;;1.10;79.42
4981;BME280;2507;50.392;7.482;2023-02-14T05:30:54;102770.28;;;1.15;80.02
4981;BME280;2507;50.392;7.482;2023-02-14T05:33:21;102759.97;;;1.21;79.44
4981;BME280;2507;50.392;7.482;2023-02-14T05:35:46;102766.00;;;1.23;80.34
4981;BME280;2507;50.392;7.482;2023-02-14T05:38:11;102766.91;;;1.32;80.71
4981;BME280;2507;50.392;7.482;2023-02-14T05:40:37;102766.94;;;1.50;80.86
4981;BME280;2507;50.392;7.482;2023-02-14T05:43:03;102791.09;;;1.52;80.13
4981;BME280;2507;50.392;7.482;2023-02-14T05:45:28;102769.50;;;1.52;79.98
4981;BME280;2507;50.392;7.482;2023-02-14T05:47:53;102772.13;;;1.58;80.26
4981;BME280;2507;50.392;7.482;2023-02-14T05:50:18;102771.25;;;1.65;79.86
4981;BME280;2507;50.392;7.482;2023-02-14T05:52:44;102766.09;;;1.71;80.12
4981;BME280;2507;50.392;7.482;2023-02-14T05:55:10;102779.91;;;1.76;79.99
4981;BME280;2507;50.392;7.482;2023-02-14T05:57:36;102794.53;;;1.77;79.85
4981;BME280;2507;50.392;7.482;2023-02-14T06:00:04;102773.84;;;1.81;79.53
4981;BME280;2507;50.392;7.482;2023-02-14T06:02:30;102767.81;;;1.85;79.82
4981;BME280;2507;50.392;7.482;2023-02-14T06:04:56;102766.09;;;1.98;80.27
4981;BME280;2507;50.392;7.482;2023-02-14T06:07:21;102763.47;;;2.02;80.22
4981;BME280;2507;50.392;7.482;2023-02-14T06:09:46;102763.50;;;1.99;79.03
4981;BME280;2507;50.392;7.482;2023-02-14T06:12:11;102760.06;;;1.88;79.74
4981;BME280;2507;50.392;7.482;2023-02-14T06:14:37;102766.94;;;1.73;79.14
4981;BME280;2507;50.392;7.482;2023-02-14T06:17:02;102776.41;;;1.53;79.79
4981;BME280;2507;50.392;7.482;2023-02-14T06:19:27;102770.38;;;1.45;80.34
4981;BME280;2507;50.392;7.482;2023-02-14T06:21:52;102777.25;;;1.46;80.75
4981;BME280;2507;50.392;7.482;2023-02-14T06:24:18;102781.56;;;1.39;80.52
4981;BME280;2507;50.392;7.482;2023-02-14T06:26:43;102777.25;;;1.35;80.93
4981;BME280;2507;50.392;7.482;2023-02-14T06:29:08;102778.13;;;1.42;81.25
4981;BME280;2507;50.392;7.482;2023-02-14T06:31:34;102774.69;;;1.43;81.40
4981;BME280;2507;50.392;7.482;2023-02-14T06:33:59;102785.91;;;1.58;80.84
4981;BME280;2507;50.392;7.482;2023-02-14T06:36:24;102784.19;;;1.75;80.78
4981;BME280;2507;50.392;7.482;2023-02-14T06:38:49;102781.63;;;1.89;80.42
4981;BME280;2507;50.392;7.482;2023-02-14T06:41:15;102779.00;;;2.02;80.49
4981;BME280;2507;50.392;7.482;2023-02-14T06:43:45;102781.59;;;2.19;80.31
4981;BME280;2507;50.392;7.482;2023-02-14T06:46:13;102774.69;;;2.27;80.04
4981;BME280;2507;50.392;7.482;2023-02-14T06:48:39;102779.88;;;2.27;80.03
4981;BME280;2507;50.392;7.482;2023-02-14T06:51:04;102783.28;;;2.35;80.32
4981;BME280;2507;50.392;7.482;2023-02-14T06:53:29;102774.66;;;2.45;80.29
4981;BME280;2507;50.392;7.482;2023-02-14T06:55:55;102778.06;;;2.50;80.38
4981;BME280;2507;50.392;7.482;2023-02-14T06:58:20;102773.72;;;2.63;80.71
4981;BME280;2507;50.392;7.482;2023-02-14T07:00:46;102781.44;;;2.76;80.69
4981;BME280;2507;50.392;7.482;2023-02-14T07:03:11;102783.09;;;2.89;80.71
4981;BME280;2507;50.392;7.482;2023-02-14T07:05:37;102778.75;;;3.00;79.76
4981;BME280;2507;50.392;7.482;2023-02-14T07:08:02;102779.56;;;3.05;80.29
4981;BME280;2507;50.392;7.482;2023-02-14T07:10:28;102776.06;;;3.17;79.95
4981;BME280;2507;50.392;7.482;2023-02-14T07:12:53;102782.09;;;3.25;78.68
4981;BME280;2507;50.392;7.482;2023-02-14T07:15:18;102780.47;;;2.98;79.34
4981;BME280;2507;50.392;7.482;2023-02-14T07:17:44;102779.63;;;2.98;80.00
4981;BME280;2507;50.392;7.482;2023-02-14T07:20:10;102793.44;;;3.03;80.43
4981;BME280;2507;50.392;7.482;2023-02-14T07:22:36;102784.69;;;3.22;80.71
4981;BME280;2507;50.392;7.482;2023-02-14T07:25:02;102790.72;;;3.26;80.30
4981;BME280;2507;50.392;7.482;2023-02-14T07:27:29;102781.25;;;3.19;79.82
4981;BME280;2507;50.392;7.482;2023-02-14T07:29:54;102781.28;;;3.14;80.29
4981;BME280;2507;50.392;7.482;2023-02-14T07:32:19;102783.81;;;3.25;81.03
4981;BME280;2507;50.392;7.482;2023-02-14T07:34:45;102784.69;;;3.21;79.79
4981;BME280;2507;50.392;7.482;2023-02-14T07:37:10;102775.94;;;3.41;79.95
4981;BME280;2507;50.392;7.482;2023-02-14T07:39:35;102770.91;;;3.16;80.90
4981;BME280;2507;50.392;7.482;2023-02-14T07:42:01;102776.84;;;3.31;81.33
4981;BME280;2507;50.392;7.482;2023-02-14T07:44:26;102770.81;;;3.32;78.88
4981;BME280;2507;50.392;7.482;2023-02-14T07:46:51;102781.41;;;2.87;78.92
4981;BME280;2507;50.392;7.482;2023-02-14T07:49:16;102784.09;;;2.61;81.38
4981;BME280;2507;50.392;7.482;2023-02-14T07:51:42;102780.59;;;2.71;81.62
4981;BME280;2507;50.392;7.482;2023-02-14T07:54:07;102781.38;;;2.94;81.68
4981;BME280;2507;50.392;7.482;2023-02-14T07:56:33;102790.00;;;2.93;81.45
4981;BME280;2507;50.392;7.482;2023-02-14T07:58:58;102781.47;;;2.72;81.23
4981;BME280;2507;50.392;7.482;2023-02-14T08:01:23;102776.31;;;2.55;81.81
4981;BME280;2507;50.392;7.482;2023-02-14T08:03:48;102782.34;;;2.71;82.09
4981;BME280;2507;50.392;7.482;2023-02-14T08:06:16;102778.91;;;2.63;81.39
4981;BME280;2507;50.392;7.482;2023-02-14T08:08:41;102780.63;;;2.55;82.52
4981;BME280;2507;50.392;7.482;2023-02-14T08:11:06;102778.03;;;2.61;82.51
4981;BME280;2507;50.392;7.482;2023-02-14T08:13:32;102788.41;;;2.55;81.78
4981;BME280;2507;50.392;7.482;2023-02-14T08:15:57;102777.97;;;2.80;83.19
4981;BME280;2507;50.392;7.482;2023-02-14T08:18:33;102782.94;;;3.29;81.74
4981;BME280;2507;50.392;7.482;2023-02-14T08:20:59;102781.13;;;3.40;80.64
4981;BME280;2507;50.392;7.482;2023-02-14T08:23:25;102775.09;;;3.36;80.74
4981;BME280;2507;50.392;7.482;2023-02-14T08:25:51;102775.88;;;3.46;79.91
4981;BME280;2507;50.392;7.482;2023-02-14T08:28:17;102780.16;;;3.57;79.19
4981;BME280;2507;50.392;7.482;2023-02-14T08:30:43;102774.16;;;3.46;80.60
4981;BME280;2507;50.392;7.482;2023-02-14T08:33:09;102779.06;;;3.85;80.70
4981;BME280;2507;50.392;7.482;2023-02-14T08:35:35;102794.25;;;4.29;79.84
4981;BME280;2507;50.392;7.482;2023-02-14T08:38:00;102782.16;;;4.27;76.75
4981;BME280;2507;50.392;7.482;2023-02-14T08:40:26;102773.66;;;4.08;77.26
4981;BME280;2507;50.392;7.482;2023-02-14T08:42:51;102777.19;;;4.01;76.52
4981;BME280;2507;50.392;7.482;2023-02-14T08:45:16;102777.34;;;3.83;78.22
4981;BME280;2507;50.392;7.482;2023-02-14T08:47:41;102777.28;;;3.90;78.08
4981;BME280;2507;50.392;7.482;2023-02-14T08:50:13;102773.88;;;3.85;78.76
4981;BME280;2507;50.392;7.482;2023-02-14T08:52:39;102780.34;;;4.36;79.41
4981;BME280;2507;50.392;7.482;2023-02-14T08:55:05;102778.31;;;4.61;77.49
4981;BME280;2507;50.392;7.482;2023-02-14T08:57:31;102783.47;;;4.65;76.27
4981;BME280;2507;50.392;7.482;2023-02-14T08:59:57;102783.50;;;4.62;76.73
4981;BME280;2507;50.392;7.482;2023-02-14T09:02:22;102781.63;;;4.73;75.76
4981;BME280;2507;50.392;7.482;2023-02-14T09:04:48;102778.25;;;4.67;75.47
4981;BME280;2507;50.392;7.482;2023-02-14T09:07:13;102790.84;;;4.98;75.29
4981;BME280;2507;50.392;7.482;2023-02-14T09:09:39;102784.88;;;4.92;74.33
4981;BME280;2507;50.392;7.482;2023-02-14T09:12:06;102780.13;;;5.22;74.35
4981;BME280;2507;50.392;7.482;2023-02-14T09:14:36;102793.91;;;5.29;73.96
4981;BME280;2507;50.392;7.482;2023-02-14T09:17:02;102785.69;;;5.59;73.20
4981;BME280;2507;50.392;7.482;2023-02-14T09:19:34;102784.50;;;5.80;72.42
4981;BME280;2507;50.392;7.482;2023-02-14T09:21:59;102782.47;;;6.00;71.53
4981;BME280;2507;50.392;7.482;2023-02-14T09:24:25;102781.56;;;6.01;69.57
4981;BME280;2507;50.392;7.482;2023-02-14T09:26:52;102810.50;;;5.81;70.87
4981;BME280;2507;50.392;7.482;2023-02-14T09:29:17;102782.97;;;5.67;71.79
4981;BME280;2507;50.392;7.482;2023-02-14T09:31:43;102784.78;;;5.62;71.63
4981;BME280;2507;50.392;7.482;2023-02-14T09:34:08;102782.84;;;5.74;72.19
4981;BME280;2507;50.392;7.482;2023-02-14T09:36:33;102787.97;;;5.79;71.39
4981;BME280;2507;50.392;7.482;2023-02-14T09:38:58;102786.28;;;5.76;72.09
4981;BME280;2507;50.392;7.482;2023-02-14T09:43:54;102785.72;;;5.58;73.15
4981;BME280;2507;50.392;7.482;2023-02-14T09:46:20;102778.44;;;5.78;72.53
4981;BME280;2507;50.392;7.482;2023-02-14T09:48:48;102783.47;;;5.90;74.05
4981;BME280;2507;50.392;7.482;2023-02-14T09:51:18;102771.88;;;6.55;71.75
4981;BME280;2507;50.392;7.482;2023-02-14T09:54:10;102780.03;;;7.23;71.02
4981;BME280;2507;50.392;7.482;2023-02-14T09:56:59;102774.72;;;7.65;68.03
4981;BME280;2507;50.392;7.482;2023-02-14T09:59:35;102762.16;;;7.79;68.06
4981;BME280;2507;50.392;7.482;2023-02-14T10:05:21;102767.28;;;8.17;64.86
4981;BME280;2507;50.392;7.482;2023-02-14T10:07:55;102760.38;;;7.81;67.25
4981;BME280;2507;50.392;7.482;2023-02-14T10:10:36;102761.28;;;8.46;65.43
4981;BME280;2507;50.392;7.482;2023-02-14T10:13:18;102785.16;;;8.66;64.15
4981;BME280;2507;50.392;7.482;2023-02-14T10:15:48;102765.50;;;8.51;65.68
4981;BME280;2507;50.392;7.482;2023-02-14T10:18:24;102754.88;;;8.57;65.05
4981;BME280;2507;50.392;7.482;2023-02-14T10:20:54;102780.22;;;8.55;65.42
4981;BME280;2507;50.392;7.482;2023-02-14T10:23:32;102792.69;;;8.47;65.57
4981;BME280;2507;50.392;7.482;2023-02-14T10:26:02;102746.72;;;8.68;64.65
4981;BME280;2507;50.392;7.482;2023-02-14T10:28:48;102744.88;;;8.71;64.94
4981;BME280;2507;50.392;7.482;2023-02-14T10:31:24;102736.47;;;8.89;63.81
4981;BME280;2507;50.392;7.482;2023-02-14T10:37:15;102721.50;;;9.22;62.43
4981;BME280;2507;50.392;7.482;2023-02-14T10:45:58;102723.31;;;8.92;61.90
4981;BME280;2507;50.392;7.482;2023-02-14T10:51:20;102721.94;;;9.08;62.86
4981;BME280;2507;50.392;7.482;2023-02-14T10:54:24;102717.94;;;8.97;61.85
4981;BME280;2507;50.392;7.482;2023-02-14T10:56:58;102713.66;;;8.65;63.16
4981;BME280;2507;50.392;7.482;2023-02-14T10:59:53;102716.00;;;8.45;64.10
4981;BME280;2507;50.392;7.482;2023-02-14T11:02:23;102715.16;;;8.43;64.17
4981;BME280;2507;50.392;7.482;2023-02-14T11:04:50;102719.28;;;8.52;63.80
4981;BME280;2507;50.392;7.482;2023-02-14T11:07:18;102715.59;;;8.59;63.55
4981;BME280;2507;50.392;7.482;2023-02-14T11:09:44;102710.28;;;8.62;63.72
4981;BME280;2507;50.392;7.482;2023-02-14T11:12:09;102709.47;;;8.60;63.11
4981;BME280;2507;50.392;7.482;2023-02-14T11:14:37;102702.44;;;8.60;63.32
4981;BME280;2507;50.392;7.482;2023-02-14T11:17:25;102698.09;;;8.30;64.55
4981;BME280;2507;50.392;7.482;2023-02-14T11:20:00;102702.84;;;8.47;64.05
4981;BME280;2507;50.392;7.482;2023-02-14T11:22:33;102689.59;;;8.20;64.62
4981;BME280;2507;50.392;7.482;2023-02-14T11:25:26;102687.84;;;8.21;65.26
4981;BME280;2507;50.392;7.482;2023-02-14T11:28:13;102671.78;;;8.36;65.30
4981;BME280;2507;50.392;7.482;2023-02-14T11:30:42;102679.56;;;8.38;64.69
4981;BME280;2507;50.392;7.482;2023-02-14T11:33:12;102672.44;;;8.43;65.27
4981;BME280;2507;50.392;7.482;2023-02-14T11:35:49;102667.13;;;8.46;65.42
4981;BME280;2507;50.392;7.482;2023-02-14T11:38:33;102673.16;;;8.77;64.80
4981;BME280;2507;50.392;7.482;2023-02-14T11:41:01;102662.69;;;8.77;63.92
4981;BME280;2507;50.392;7.482;2023-02-14T11:43:35;102675.84;;;8.75;64.34
4981;BME280;2507;50.392;7.482;2023-02-14T11:48:56;102648.69;;;8.79;64.12
4981;BME280;2507;50.392;7.482;2023-02-14T11:51:48;102640.78;;;8.81;63.64
4981;BME280;2507;50.392;7.482;2023-02-14T11:54:31;102648.44;;;8.87;63.96
4981;BME280;2507;50.392;7.482;2023-02-14T11:57:07;102637.50;;;8.73;64.18
4981;BME280;2507;50.392;7.482;2023-02-14T11:59:45;102631.63;;;8.94;63.93
4981;BME280;2507;50.392;7.482;2023-02-14T12:02:35;102623.91;;;8.89;63.64
4981;BME280;2507;50.392;7.482;2023-02-14T12:05:05;102617.97;;;8.84;64.34
4981;BME280;2507;50.392;7.482;2023-02-14T12:07:38;102613.16;;;8.98;63.71
4981;BME280;2507;50.392;7.482;2023-02-14T12:12:34;102611.84;;;9.11;63.11
4981;BME280;2507;50.392;7.482;2023-02-14T12:15:24;102604.81;;;9.13;62.98
4981;BME280;2507;50.392;7.482;2023-02-14T12:17:55;102599.06;;;9.28;62.73
4981;BME280;2507;50.392;7.482;2023-02-14T12:20:34;102599.19;;;9.50;62.08
4981;BME280;2507;50.392;7.482;2023-02-14T12:23:17;102589.91;;;9.42;62.73
4981;BME280;2507;50.392;7.482;2023-02-14T12:25:55;102585.09;;;9.54;62.25
4981;BME280;2507;50.392;7.482;2023-02-14T12:28:30;102583.09;;;9.61;61.93
4981;BME280;2507;50.392;7.482;2023-02-14T12:31:02;102569.44;;;9.53;61.87
4981;BME280;2507;50.392;7.482;2023-02-14T12:33:27;102605.56;;;9.17;63.98
4981;BME280;2507;50.392;7.482;2023-02-14T12:36:13;102559.03;;;9.25;64.15
4981;BME280;2507;50.392;7.482;2023-02-14T12:41:44;102560.66;;;9.54;62.33
4981;BME280;2507;50.392;7.482;2023-02-14T12:44:32;102549.28;;;9.53;62.25
4981;BME280;2507;50.392;7.482;2023-02-14T12:49:54;102549.53;;;9.47;62.21
4981;BME280;2507;50.392;7.482;2023-02-14T12:57:55;102531.91;;;9.98;60.62
4981;BME280;2507;50.392;7.482;2023-02-14T13:14:40;102512.56;;;10.47;59.01
4981;BME280;2507;50.392;7.482;2023-02-14T13:22:40;102494.22;;;10.67;58.91
4981;BME280;2507;50.392;7.482;2023-02-14T13:25:26;102493.97;;;10.73;58.58
4981;BME280;2507;50.392;7.482;2023-02-14T13:27:57;102497.16;;;10.81;58.43
4981;BME280;2507;50.392;7.482;2023-02-14T13:30:29;102492.34;;;10.71;58.25
4981;BME280;2507;50.392;7.482;2023-02-14T13:32:59;102483.72;;;10.67;58.49
4981;BME280;2507;50.392;7.482;2023-02-14T13:35:28;102483.13;;;10.61;58.68
4981;BME280;2507;50.392;7.482;2023-02-14T13:37:57;102475.69;;;10.50;59.41
4981;BME280;2507;50.392;7.482;2023-02-14T13:40:25;102485.44;;;10.47;59.56
4981;BME280;2507;50.392;7.482;2023-02-14T13:48:18;102472.91;;;10.53;59.67
4981;BME280;2507;50.392;7.482;2023-02-14T13:58:35;102452.72;;;10.55;58.70
4981;BME280;2507;50.392;7.482;2023-02-14T14:01:40;102455.06;;;10.41;59.81
4981;BME280;2507;50.392;7.482;2023-02-14T14:17:32;102452.41;;;10.63;59.65
4981;BME280;2507;50.392;7.482;2023-02-14T14:19:58;102439.75;;;10.72;59.07
4981;BME280;2507;50.392;7.482;2023-02-14T14:22:24;102438.63;;;10.58;59.27
4981;BME280;2507;50.392;7.482;2023-02-14T14:24:54;102437.38;;;10.66;59.26
4981;BME280;2507;50.392;7.482;2023-02-14T14:27:39;102444.16;;;10.72;58.97
4981;BME280;2507;50.392;7.482;2023-02-14T14:30:15;102441.59;;;10.90;58.72
4981;BME280;2507;50.392;7.482;2023-02-14T14:32:42;102436.75;;;10.81;58.72
4981;BME280;2507;50.392;7.482;2023-02-14T14:37:57;102437.56;;;10.82;58.71
4981;BME280;2507;50.392;7.482;2023-02-14T14:40:28;102416.38;;;10.86;58.87
4981;BME280;2507;50.392;7.482;2023-02-14T14:43:00;102425.56;;;10.96;58.54
4981;BME280;2507;50.392;7.482;2023-02-14T14:45:29;102443.91;;;10.78;59.08
4981;BME280;2507;50.392;7.482;2023-02-14T14:47:58;102420.78;;;10.86;58.62
4981;BME280;2507;50.392;7.482;2023-02-14T14:50:27;102417.91;;;10.92;58.63
4981;BME280;2507;50.392;7.482;2023-02-14T14:53:05;102412.41;;;10.98;58.46
4981;BME280;2507;50.392;7.482;2023-02-14T14:55:35;102407.56;;;10.87;58.51
4981;BME280;2507;50.392;7.482;2023-02-14T14:58:06;102406.94;;;10.82;58.88
4981;BME280;2507;50.392;7.482;2023-02-14T15:00:51;102410.50;;;10.81;58.85
4981;BME280;2507;50.392;7.482;2023-02-14T15:03:20;102403.19;;;10.88;58.67
4981;BME280;2507;50.392;7.482;2023-02-14T15:05:48;102406.28;;;10.77;58.34
4981;BME280;2507;50.392;7.482;2023-02-14T15:13:42;102402.72;;;10.38;59.89
4981;BME280;2507;50.392;7.482;2023-02-14T15:16:26;102401.72;;;10.41;60.15
4981;BME280;2507;50.392;7.482;2023-02-14T15:18:56;102399.28;;;10.36;59.85
4981;BME280;2507;50.392;7.482;2023-02-14T15:21:22;102392.69;;;10.26;60.21
4981;BME280;2507;50.392;7.482;2023-02-14T15:23:48;102396.09;;;10.28;60.05
4981;BME280;2507;50.392;7.482;2023-02-14T15:26:27;102389.53;;;10.18;60.60
4981;BME280;2507;50.392;7.482;2023-02-14T15:28:56;102392.72;;;10.03;60.93
4981;BME280;2507;50.392;7.482;2023-02-14T15:31:25;102397.56;;;9.92;60.97
4981;BME280;2507;50.392;7.482;2023-02-14T15:33:52;102392.53;;;9.86;61.29
4981;BME280;2507;50.392;7.482;2023-02-14T15:36:19;102395.81;;;9.69;61.75
4981;BME280;2507;50.392;7.482;2023-02-14T15:38:45;102400.59;;;9.58;61.80